WZZ3428 UKHH-UKBB
Flight info
| Callsign | WZZ3428 |
|---|---|
| Flight time | 0h 44m |
| Altitude | 34000 |
| Route | UDVIR P142 GOTAP |
| Aircraft | A321/M-SDE3FGHIRWY/LB1 |
Departure
| Time | 2026-04-25 17:52 |
|---|---|
| Airport | Kharkiv International Airport (UKHH) |
Arrival
| Time | 2026-04-25 18:37 |
|---|---|
| Airport | Boryspil International Airport (UKBB) |
| Time | Latitude | Longitude | Altitude | Speed | Heading |
|---|---|---|---|---|---|
| 2026-04-25 17:28 | 49.92196 | 36.28151 | 506 ft | 0 kts | 241° |
| 2026-04-25 17:36 | 49.92196 | 36.28152 | 506 ft | 0 kts | 241° |
| 2026-04-25 17:42 | 49.92199 | 36.28160 | 506 ft | 4 kts | 249° |
| 2026-04-25 17:42 | 49.92198 | 36.28190 | 506 ft | 4 kts | 322° |
| 2026-04-25 17:42 | 49.92181 | 36.28206 | 506 ft | 0 kts | 331° |
| 2026-04-25 17:46 | 49.92182 | 36.28206 | 506 ft | 1 kts | 331° |
| 2026-04-25 17:46 | 49.92203 | 36.28197 | 506 ft | 7 kts | 346° |
| 2026-04-25 17:47 | 49.92270 | 36.28165 | 506 ft | 12 kts | 334° |
| 2026-04-25 17:47 | 49.92351 | 36.28121 | 506 ft | 13 kts | 351° |
| 2026-04-25 17:47 | 49.92434 | 36.28108 | 506 ft | 9 kts | 6° |
| 2026-04-25 17:47 | 49.92461 | 36.28187 | 507 ft | 9 kts | 81° |
| 2026-04-25 17:48 | 49.92485 | 36.28475 | 509 ft | 18 kts | 83° |
| 2026-04-25 17:48 | 49.92501 | 36.28668 | 511 ft | 18 kts | 83° |
| 2026-04-25 17:48 | 49.92517 | 36.28866 | 513 ft | 18 kts | 83° |
| 2026-04-25 17:49 | 49.92534 | 36.29064 | 515 ft | 19 kts | 82° |
| 2026-04-25 17:49 | 49.92550 | 36.29265 | 517 ft | 18 kts | 82° |
| 2026-04-25 17:49 | 49.92563 | 36.29422 | 519 ft | 15 kts | 83° |
| 2026-04-25 17:49 | 49.92576 | 36.29583 | 520 ft | 15 kts | 83° |
| 2026-04-25 17:50 | 49.92589 | 36.29746 | 521 ft | 15 kts | 83° |
| 2026-04-25 17:50 | 49.92603 | 36.29913 | 523 ft | 17 kts | 83° |
| 2026-04-25 17:50 | 49.92620 | 36.30123 | 525 ft | 21 kts | 83° |
| 2026-04-25 17:50 | 49.92637 | 36.30343 | 527 ft | 21 kts | 84° |
| 2026-04-25 17:51 | 49.92654 | 36.30563 | 529 ft | 21 kts | 82° |
| 2026-04-25 17:51 | 49.92692 | 36.30753 | 531 ft | 16 kts | 46° |
| 2026-04-25 17:51 | 49.92787 | 36.30794 | 531 ft | 15 kts | 350° |
| 2026-04-25 17:51 | 49.92822 | 36.30725 | 530 ft | 10 kts | 265° |
| 2026-04-25 17:52 | 49.92801 | 36.30460 | 529 ft | 57 kts | 262° |
| 2026-04-25 17:52 | 49.92780 | 36.30218 | 526 ft | 82 kts | 263° |
| 2026-04-25 17:52 | 49.92590 | 36.27906 | 892 ft | 147 kts | 262° |
| 2026-04-25 17:52 | 49.92475 | 36.26381 | 1790 ft | 138 kts | 259° |
| 2026-04-25 17:53 | 49.92356 | 36.24903 | 2479 ft | 142 kts | 259° |
| 2026-04-25 17:53 | 49.92220 | 36.23320 | 2929 ft | 155 kts | 259° |
| 2026-04-25 17:53 | 49.92067 | 36.21576 | 3241 ft | 173 kts | 260° |
| 2026-04-25 17:53 | 49.91897 | 36.19599 | 3503 ft | 197 kts | 261° |
| 2026-04-25 17:54 | 49.91709 | 36.17354 | 3849 ft | 221 kts | 262° |
| 2026-04-25 17:54 | 49.91509 | 36.14943 | 4442 ft | 234 kts | 262° |
| 2026-04-25 17:54 | 49.91450 | 36.12399 | 5221 ft | 239 kts | 274° |
| 2026-04-25 17:54 | 49.91711 | 36.09831 | 6038 ft | 244 kts | 282° |
| 2026-04-25 17:55 | 49.92169 | 36.07271 | 6828 ft | 249 kts | 284° |
| 2026-04-25 17:55 | 49.92680 | 36.04685 | 7624 ft | 252 kts | 285° |
| 2026-04-25 17:55 | 49.93189 | 36.02056 | 8434 ft | 256 kts | 285° |
| 2026-04-25 17:55 | 49.93682 | 35.99378 | 9253 ft | 260 kts | 284° |
| 2026-04-25 17:56 | 49.94164 | 35.96650 | 10023 ft | 264 kts | 284° |
| 2026-04-25 17:56 | 49.94643 | 35.93835 | 10363 ft | 284 kts | 284° |
| 2026-04-25 17:56 | 49.95153 | 35.90740 | 10568 ft | 307 kts | 283° |
| 2026-04-25 17:56 | 49.95691 | 35.87431 | 10935 ft | 322 kts | 283° |
| 2026-04-25 17:57 | 49.96238 | 35.84040 | 11588 ft | 327 kts | 283° |
| 2026-04-25 17:57 | 49.96793 | 35.80597 | 12285 ft | 331 kts | 284° |
| 2026-04-25 17:57 | 49.97353 | 35.77112 | 12991 ft | 334 kts | 284° |
| 2026-04-25 17:57 | 49.97543 | 35.75928 | 13229 ft | 336 kts | 284° |
| 2026-04-25 17:58 | 49.98488 | 35.70017 | 14321 ft | 342 kts | 284° |
| 2026-04-25 17:58 | 49.99061 | 35.66417 | 14974 ft | 344 kts | 284° |
| 2026-04-25 17:58 | 49.99627 | 35.62836 | 15613 ft | 347 kts | 284° |
| 2026-04-25 17:58 | 50.00206 | 35.59179 | 16272 ft | 350 kts | 284° |
| 2026-04-25 17:59 | 50.00791 | 35.55494 | 16931 ft | 352 kts | 284° |
| 2026-04-25 17:59 | 50.01380 | 35.51789 | 17586 ft | 355 kts | 284° |
| 2026-04-25 17:59 | 50.01972 | 35.48044 | 18220 ft | 358 kts | 284° |
| 2026-04-25 17:59 | 50.02564 | 35.44265 | 18764 ft | 361 kts | 284° |
| 2026-04-25 18:00 | 50.03160 | 35.40452 | 19317 ft | 364 kts | 285° |
| 2026-04-25 18:00 | 50.03557 | 35.37907 | 19690 ft | 366 kts | 285° |
| 2026-04-25 18:00 | 50.04341 | 35.32871 | 20999 ft | 353 kts | 285° |
| 2026-04-25 18:00 | 50.04910 | 35.29213 | 21667 ft | 353 kts | 286° |
| 2026-04-25 18:01 | 50.05488 | 35.25488 | 22232 ft | 356 kts | 286° |
| 2026-04-25 18:01 | 50.06071 | 35.21731 | 22775 ft | 359 kts | 286° |
| 2026-04-25 18:01 | 50.06654 | 35.17938 | 23314 ft | 362 kts | 285° |
| 2026-04-25 18:01 | 50.07172 | 35.14081 | 23777 ft | 366 kts | 284° |
| 2026-04-25 18:02 | 50.07633 | 35.10174 | 24248 ft | 368 kts | 283° |
| 2026-04-25 18:02 | 50.08066 | 35.06237 | 24702 ft | 370 kts | 283° |
| 2026-04-25 18:02 | 50.08492 | 35.02290 | 25164 ft | 371 kts | 283° |
| 2026-04-25 18:02 | 50.08927 | 34.98314 | 25577 ft | 374 kts | 283° |
| 2026-04-25 18:03 | 50.09368 | 34.94362 | 25983 ft | 377 kts | 284° |
| 2026-04-25 18:03 | 50.09823 | 34.90337 | 26415 ft | 378 kts | 284° |
| 2026-04-25 18:03 | 50.10285 | 34.86295 | 26858 ft | 380 kts | 284° |
| 2026-04-25 18:03 | 50.10750 | 34.82238 | 27288 ft | 381 kts | 284° |
| 2026-04-25 18:04 | 50.11218 | 34.78164 | 27717 ft | 383 kts | 284° |
| 2026-04-25 18:04 | 50.11683 | 34.74072 | 28118 ft | 384 kts | 283° |
| 2026-04-25 18:04 | 50.12147 | 34.69963 | 28539 ft | 386 kts | 283° |
| 2026-04-25 18:04 | 50.12612 | 34.65840 | 28962 ft | 387 kts | 283° |
| 2026-04-25 18:05 | 50.13077 | 34.61760 | 29371 ft | 388 kts | 283° |
| 2026-04-25 18:05 | 50.13555 | 34.57614 | 29817 ft | 388 kts | 283° |
| 2026-04-25 18:05 | 50.14031 | 34.53491 | 30310 ft | 386 kts | 283° |
| 2026-04-25 18:05 | 50.14507 | 34.49376 | 30758 ft | 385 kts | 283° |
| 2026-04-25 18:06 | 50.14978 | 34.45267 | 31170 ft | 385 kts | 282° |
| 2026-04-25 18:06 | 50.15445 | 34.41164 | 31588 ft | 384 kts | 282° |
| 2026-04-25 18:06 | 50.15908 | 34.37068 | 32001 ft | 383 kts | 282° |
| 2026-04-25 18:06 | 50.16365 | 34.32978 | 32414 ft | 382 kts | 282° |
| 2026-04-25 18:07 | 50.16819 | 34.28897 | 32824 ft | 382 kts | 282° |
| 2026-04-25 18:07 | 50.17266 | 34.24878 | 33221 ft | 381 kts | 282° |
| 2026-04-25 18:07 | 50.17720 | 34.20813 | 33625 ft | 380 kts | 282° |
| 2026-04-25 18:07 | 50.18178 | 34.16746 | 33848 ft | 383 kts | 282° |
| 2026-04-25 18:08 | 50.18641 | 34.12614 | 33893 ft | 390 kts | 282° |
| 2026-04-25 18:08 | 50.19578 | 34.04156 | 33880 ft | 398 kts | 281° |
| 2026-04-25 18:09 | 50.20508 | 33.95611 | 33881 ft | 400 kts | 281° |
| 2026-04-25 18:09 | 50.21332 | 33.87086 | 33880 ft | 401 kts | 275° |
| 2026-04-25 18:10 | 50.21631 | 33.78386 | 33882 ft | 401 kts | 275° |
| 2026-04-25 18:10 | 50.21915 | 33.69687 | 33894 ft | 402 kts | 275° |
| 2026-04-25 18:11 | 50.22198 | 33.60974 | 33861 ft | 402 kts | 275° |
| 2026-04-25 18:11 | 50.22473 | 33.52321 | 33869 ft | 401 kts | 275° |
| 2026-04-25 18:12 | 50.22739 | 33.43609 | 33871 ft | 402 kts | 275° |
| 2026-04-25 18:12 | 50.22992 | 33.34893 | 33877 ft | 402 kts | 275° |
| 2026-04-25 18:13 | 50.23242 | 33.26233 | 33882 ft | 402 kts | 275° |
| 2026-04-25 18:13 | 50.23486 | 33.17523 | 33883 ft | 402 kts | 275° |
| 2026-04-25 18:14 | 50.23736 | 33.08814 | 33723 ft | 400 kts | 275° |
| 2026-04-25 18:14 | 50.23860 | 33.04476 | 33034 ft | 400 kts | 275° |
| 2026-04-25 18:14 | 50.23980 | 33.00122 | 32288 ft | 402 kts | 274° |
| 2026-04-25 18:14 | 50.24094 | 32.95748 | 31542 ft | 404 kts | 274° |
| 2026-04-25 18:15 | 50.24208 | 32.91350 | 30783 ft | 406 kts | 274° |
| 2026-04-25 18:15 | 50.24322 | 32.86928 | 30034 ft | 409 kts | 274° |
| 2026-04-25 18:15 | 50.24437 | 32.82484 | 29249 ft | 409 kts | 274° |
| 2026-04-25 18:15 | 50.24547 | 32.78125 | 28636 ft | 405 kts | 274° |
| 2026-04-25 18:16 | 50.24655 | 32.73748 | 28021 ft | 401 kts | 274° |
| 2026-04-25 18:16 | 50.24759 | 32.69420 | 27411 ft | 398 kts | 274° |
| 2026-04-25 18:16 | 50.24961 | 32.60846 | 26177 ft | 392 kts | 274° |
| 2026-04-25 18:17 | 50.25059 | 32.56640 | 25829 ft | 383 kts | 274° |
| 2026-04-25 18:17 | 50.25154 | 32.52517 | 25375 ft | 377 kts | 274° |
| 2026-04-25 18:17 | 50.25248 | 32.48439 | 24893 ft | 374 kts | 274° |
| 2026-04-25 18:17 | 50.25338 | 32.44393 | 24384 ft | 371 kts | 274° |
| 2026-04-25 18:18 | 50.25421 | 32.40429 | 23907 ft | 369 kts | 274° |
| 2026-04-25 18:18 | 50.25503 | 32.36437 | 23433 ft | 366 kts | 274° |
| 2026-04-25 18:18 | 50.25568 | 32.32467 | 22898 ft | 364 kts | 272° |
| 2026-04-25 18:18 | 50.25588 | 32.28517 | 22384 ft | 363 kts | 272° |
| 2026-04-25 18:19 | 50.25582 | 32.24589 | 21876 ft | 360 kts | 271° |
| 2026-04-25 18:19 | 50.25567 | 32.20687 | 21243 ft | 361 kts | 271° |
| 2026-04-25 18:19 | 50.25555 | 32.16736 | 20562 ft | 365 kts | 272° |
| 2026-04-25 18:19 | 50.25546 | 32.12778 | 20009 ft | 364 kts | 272° |
| 2026-04-25 18:20 | 50.25540 | 32.08836 | 19496 ft | 362 kts | 272° |
| 2026-04-25 18:20 | 50.25537 | 32.04966 | 18990 ft | 360 kts | 272° |
| 2026-04-25 18:20 | 50.25535 | 32.01066 | 18487 ft | 358 kts | 272° |
| 2026-04-25 18:20 | 50.25532 | 31.97185 | 17952 ft | 356 kts | 272° |
| 2026-04-25 18:21 | 50.25526 | 31.93326 | 17381 ft | 354 kts | 271° |
| 2026-04-25 18:21 | 50.25518 | 31.89500 | 16847 ft | 350 kts | 271° |
| 2026-04-25 18:21 | 50.25515 | 31.85709 | 16306 ft | 347 kts | 273° |
| 2026-04-25 18:21 | 50.25799 | 31.81991 | 15771 ft | 343 kts | 283° |
| 2026-04-25 18:22 | 50.26520 | 31.78457 | 15255 ft | 340 kts | 293° |
| 2026-04-25 18:22 | 50.26833 | 31.77365 | 15076 ft | 340 kts | 294° |
| 2026-04-25 18:22 | 50.28444 | 31.71808 | 14206 ft | 336 kts | 294° |
| 2026-04-25 18:22 | 50.29397 | 31.68485 | 13701 ft | 334 kts | 294° |
| 2026-04-25 18:23 | 50.30340 | 31.65185 | 13140 ft | 331 kts | 294° |
| 2026-04-25 18:23 | 50.31272 | 31.61913 | 12600 ft | 328 kts | 293° |
| 2026-04-25 18:23 | 50.32195 | 31.58676 | 12060 ft | 324 kts | 293° |
| 2026-04-25 18:23 | 50.33112 | 31.55469 | 11513 ft | 321 kts | 293° |
| 2026-04-25 18:24 | 50.34020 | 31.52290 | 11018 ft | 318 kts | 293° |
| 2026-04-25 18:24 | 50.34914 | 31.49145 | 10604 ft | 313 kts | 292° |
| 2026-04-25 18:24 | 50.35763 | 31.46144 | 10478 ft | 299 kts | 292° |
| 2026-04-25 18:24 | 50.36586 | 31.43236 | 10349 ft | 286 kts | 292° |
| 2026-04-25 18:25 | 50.37372 | 31.40450 | 10229 ft | 274 kts | 292° |
| 2026-04-25 18:25 | 50.38125 | 31.37781 | 10063 ft | 264 kts | 292° |
| 2026-04-25 18:25 | 50.38862 | 31.35169 | 9780 ft | 260 kts | 292° |
| 2026-04-25 18:25 | 50.39596 | 31.32587 | 9422 ft | 258 kts | 292° |
| 2026-04-25 18:26 | 50.40328 | 31.30024 | 9042 ft | 257 kts | 292° |
| 2026-04-25 18:26 | 50.41057 | 31.27476 | 8660 ft | 255 kts | 292° |
| 2026-04-25 18:26 | 50.41773 | 31.24977 | 8298 ft | 254 kts | 292° |
| 2026-04-25 18:26 | 50.42495 | 31.22457 | 7927 ft | 253 kts | 292° |
| 2026-04-25 18:27 | 50.43211 | 31.19947 | 7566 ft | 252 kts | 292° |
| 2026-04-25 18:27 | 50.43921 | 31.17449 | 7214 ft | 250 kts | 292° |
| 2026-04-25 18:27 | 50.44626 | 31.14962 | 6865 ft | 249 kts | 292° |
| 2026-04-25 18:27 | 50.45318 | 31.12522 | 6711 ft | 240 kts | 292° |
| 2026-04-25 18:28 | 50.45984 | 31.10180 | 6573 ft | 230 kts | 291° |
| 2026-04-25 18:28 | 50.46621 | 31.07935 | 6461 ft | 221 kts | 291° |
| 2026-04-25 18:28 | 50.47441 | 31.05935 | 6270 ft | 219 kts | 309° |
| 2026-04-25 18:29 | 50.50154 | 31.03772 | 5629 ft | 233 kts | 348° |
| 2026-04-25 18:29 | 50.51794 | 31.03803 | 5283 ft | 237 kts | 356° |
| 2026-04-25 18:30 | 50.56727 | 31.04196 | 4277 ft | 236 kts | 356° |
| 2026-04-25 18:30 | 50.58364 | 31.04254 | 3927 ft | 232 kts | 346° |
| 2026-04-25 18:30 | 50.59804 | 31.03456 | 3591 ft | 218 kts | 319° |
| 2026-04-25 18:30 | 50.60830 | 31.01769 | 3456 ft | 210 kts | 295° |
| 2026-04-25 18:31 | 50.61282 | 30.99679 | 3329 ft | 203 kts | 273° |
| 2026-04-25 18:31 | 50.61349 | 30.97462 | 3205 ft | 203 kts | 270° |
| 2026-04-25 18:31 | 50.61232 | 30.95276 | 3095 ft | 201 kts | 250° |
| 2026-04-25 18:31 | 50.60479 | 30.93433 | 2992 ft | 205 kts | 224° |
| 2026-04-25 18:32 | 50.59204 | 30.92406 | 2987 ft | 213 kts | 195° |
| 2026-04-25 18:32 | 50.57704 | 30.92223 | 2983 ft | 218 kts | 188° |
| 2026-04-25 18:32 | 50.56185 | 30.92129 | 2987 ft | 218 kts | 188° |
| 2026-04-25 18:32 | 50.54689 | 30.92024 | 2994 ft | 216 kts | 188° |
| 2026-04-25 18:33 | 50.53235 | 30.91921 | 2994 ft | 205 kts | 189° |
| 2026-04-25 18:33 | 50.51823 | 30.91815 | 2983 ft | 202 kts | 189° |
| 2026-04-25 18:33 | 50.50427 | 30.91710 | 2991 ft | 201 kts | 189° |
| 2026-04-25 18:33 | 50.49029 | 30.91605 | 2925 ft | 201 kts | 189° |
| 2026-04-25 18:34 | 50.47635 | 30.91503 | 2711 ft | 199 kts | 189° |
| 2026-04-25 18:34 | 50.46260 | 30.91402 | 2471 ft | 195 kts | 189° |
| 2026-04-25 18:34 | 50.44942 | 30.91307 | 2222 ft | 184 kts | 189° |
| 2026-04-25 18:34 | 50.43719 | 30.91219 | 1966 ft | 168 kts | 189° |
| 2026-04-25 18:35 | 50.42624 | 30.91140 | 1761 ft | 153 kts | 190° |
| 2026-04-25 18:35 | 50.41622 | 30.91066 | 1571 ft | 139 kts | 190° |
| 2026-04-25 18:35 | 50.40668 | 30.90992 | 1385 ft | 136 kts | 189° |
| 2026-04-25 18:35 | 50.39728 | 30.90920 | 1194 ft | 135 kts | 187° |
| 2026-04-25 18:36 | 50.38786 | 30.90853 | 998 ft | 136 kts | 186° |
| 2026-04-25 18:36 | 50.37834 | 30.90780 | 793 ft | 136 kts | 185° |
| 2026-04-25 18:36 | 50.36893 | 30.90707 | 622 ft | 135 kts | 184° |
| 2026-04-25 18:36 | 50.35954 | 30.90640 | 446 ft | 135 kts | 184° |
| 2026-04-25 18:37 | 50.35104 | 30.90576 | 412 ft | 107 kts | 182° |
| 2026-04-25 18:37 | 50.34537 | 30.90535 | 413 ft | 58 kts | 182° |
| 2026-04-25 18:37 | 50.34318 | 30.90510 | 410 ft | 24 kts | 192° |
| 2026-04-25 18:37 | 50.34174 | 30.90427 | 413 ft | 19 kts | 208° |
| 2026-04-25 18:38 | 50.34067 | 30.90322 | 413 ft | 14 kts | 212° |
| 2026-04-25 18:38 | 50.34051 | 30.90196 | 413 ft | 13 kts | 318° |
| 2026-04-25 18:38 | 50.34141 | 30.90183 | 411 ft | 14 kts | 3° |
| 2026-04-25 18:38 | 50.34241 | 30.90190 | 412 ft | 15 kts | 2° |
| 2026-04-25 18:39 | 50.34339 | 30.90197 | 411 ft | 15 kts | 3° |
| 2026-04-25 18:39 | 50.34445 | 30.90205 | 414 ft | 16 kts | 3° |
| 2026-04-25 18:39 | 50.34555 | 30.90213 | 411 ft | 16 kts | 2° |
| 2026-04-25 18:39 | 50.34647 | 30.90220 | 408 ft | 7 kts | 3° |
| 2026-04-25 18:40 | 50.34699 | 30.90224 | 413 ft | 8 kts | 2° |
| 2026-04-25 18:40 | 50.34765 | 30.90228 | 406 ft | 10 kts | 2° |
| 2026-04-25 18:40 | 50.34848 | 30.90227 | 411 ft | 13 kts | 342° |
| 2026-04-25 18:40 | 50.34891 | 30.90125 | 413 ft | 11 kts | 274° |
| 2026-04-25 18:41 | 50.34916 | 30.90015 | 412 ft | 12 kts | 322° |
| 2026-04-25 18:41 | 50.35002 | 30.90003 | 415 ft | 13 kts | 1° |
| 2026-04-25 18:41 | 50.35098 | 30.90011 | 411 ft | 13 kts | 2° |
| 2026-04-25 18:41 | 50.35115 | 30.90012 | 415 ft | 3 kts | 4° |
| 2026-04-25 18:42 | 50.35123 | 30.90032 | 415 ft | 2 kts | 79° |
| 2026-04-25 18:42 | 50.35122 | 30.90041 | 415 ft | 3 kts | 92° |
| 2026-04-25 18:42 | 50.35120 | 30.90121 | 415 ft | 3 kts | 92° |
| 2026-04-25 18:42 | 50.35119 | 30.90132 | 415 ft | 1 kts | 93° |
| 2026-04-25 18:43 | 50.35119 | 30.90137 | 415 ft | 0 kts | 93° |